createdAt,value
2023-03-12T00:01:22.230Z,3.92
2023-03-12T00:06:30.243Z,4.78
2023-03-12T00:11:36.786Z,4.20
2023-03-12T00:16:43.591Z,4.22
2023-03-12T00:21:51.885Z,4.57
2023-03-12T00:26:58.615Z,3.77
2023-03-12T00:32:05.310Z,4.15
2023-03-12T00:37:13.439Z,3.63
2023-03-12T00:42:21.102Z,4.63
2023-03-12T00:47:27.615Z,4.45
2023-03-12T00:52:35.776Z,4.15
2023-03-12T00:57:42.373Z,3.13
2023-03-12T01:02:49.045Z,4.55
2023-03-12T01:07:57.146Z,4.20
2023-03-12T01:13:03.814Z,4.33
2023-03-12T01:18:10.350Z,4.30
2023-03-12T01:23:18.538Z,4.65
2023-03-12T01:28:26.083Z,4.47
2023-03-12T01:33:32.557Z,3.88
2023-03-12T01:38:40.515Z,4.05
2023-03-12T01:43:47.448Z,4.17
2023-03-12T01:49:01.384Z,3.85
2023-03-12T01:54:17.480Z,3.92
2023-03-12T01:59:32.281Z,4.22
2023-03-12T02:04:41.673Z,4.15
2023-03-12T02:09:52.646Z,4.80
2023-03-12T02:14:59.487Z,4.47
2023-03-12T02:20:18.700Z,4.28
2023-03-12T02:25:37.055Z,4.78
2023-03-12T02:30:48.076Z,5.03
2023-03-12T02:35:56.406Z,4.72
2023-03-12T02:41:15.404Z,4.65
2023-03-12T02:46:23.131Z,4.40
2023-03-12T02:51:29.980Z,4.38
2023-03-12T02:56:38.650Z,4.07
2023-03-12T03:01:45.850Z,4.57
2023-03-12T03:06:52.794Z,4.68
2023-03-12T03:12:01.179Z,4.32
2023-03-12T03:17:10.295Z,4.40
2023-03-12T03:22:16.975Z,4.38
2023-03-12T03:27:24.983Z,3.72
2023-03-12T03:32:32.954Z,4.03
2023-03-12T03:37:39.768Z,3.95
2023-03-12T03:42:47.946Z,3.75
2023-03-12T03:47:54.959Z,3.20
2023-03-12T03:53:01.760Z,3.45
2023-03-12T03:58:10.205Z,2.90
2023-03-12T04:03:18.692Z,3.15
2023-03-12T04:08:25.358Z,3.20
2023-03-12T04:13:33.230Z,3.60
2023-03-12T04:18:40.669Z,2.97
2023-03-12T04:23:47.801Z,2.92
2023-03-12T04:28:56.882Z,3.25
2023-03-12T04:34:04.251Z,2.75
2023-03-12T04:39:11.271Z,2.63
2023-03-12T04:44:19.426Z,2.28
2023-03-12T04:49:26.134Z,2.40
2023-03-12T04:54:34.565Z,2.17
2023-03-12T04:59:43.094Z,2.30
2023-03-12T05:04:49.777Z,2.60
2023-03-12T05:09:56.839Z,2.90
2023-03-12T05:15:05.480Z,2.50
2023-03-12T05:20:14.168Z,2.65
2023-03-12T05:25:21.517Z,2.75
2023-03-12T05:30:29.304Z,2.20
2023-03-12T05:35:35.878Z,2.50
2023-03-12T05:40:42.284Z,2.33
2023-03-12T05:45:51.397Z,2.67
2023-03-12T05:50:58.827Z,2.10
2023-03-12T05:56:07.374Z,2.15
2023-03-12T06:01:18.331Z,2.50
2023-03-12T06:06:25.349Z,2.45
2023-03-12T06:11:33.726Z,2.20
2023-03-12T06:16:41.889Z,2.33
2023-03-12T06:21:49.049Z,1.90
2023-03-12T06:26:56.138Z,2.05
2023-03-12T06:32:04.260Z,2.05
2023-03-12T06:37:12.113Z,1.70
2023-03-12T06:42:20.064Z,1.70
2023-03-12T06:47:28.089Z,2.22
2023-03-12T06:52:34.741Z,3.03
2023-03-12T06:57:41.314Z,2.03
2023-03-12T07:02:49.400Z,1.67
2023-03-12T07:07:58.525Z,1.33
2023-03-12T07:13:05.012Z,1.65
2023-03-12T07:18:14.726Z,2.08
2023-03-12T07:23:21.582Z,1.73
2023-03-12T07:28:28.260Z,1.67
2023-03-12T07:33:37.001Z,2.10
2023-03-12T07:38:43.735Z,1.50
2023-03-12T07:43:50.215Z,1.63
2023-03-12T07:48:58.069Z,1.73
2023-03-12T07:54:04.666Z,1.45
2023-03-12T07:59:11.448Z,1.38
2023-03-12T08:04:19.897Z,1.20
2023-03-12T08:09:29.801Z,1.35
2023-03-12T08:14:37.221Z,1.20
2023-03-12T08:19:48.550Z,1.05
2023-03-12T08:24:55.490Z,1.30
2023-03-12T08:30:02.503Z,1.30
2023-03-12T08:35:11.890Z,1.17
2023-03-12T08:40:19.155Z,1.70
2023-03-12T08:45:25.731Z,1.42
2023-03-12T08:50:33.731Z,1.20
2023-03-12T08:55:40.194Z,1.60
2023-03-12T09:00:46.532Z,1.50
2023-03-12T09:06:06.630Z,1.27
2023-03-12T09:11:14.958Z,1.60
2023-03-12T09:16:21.604Z,1.80
2023-03-12T09:21:31.648Z,1.23
2023-03-12T09:26:38.397Z,1.40
2023-03-12T09:31:44.977Z,1.20
2023-03-12T09:36:52.887Z,1.10
2023-03-12T09:41:59.576Z,0.90
2023-03-12T09:47:12.957Z,1.15
2023-03-12T09:52:30.063Z,1.15
2023-03-12T09:57:37.074Z,1.48
2023-03-12T10:03:20.072Z,1.38
2023-03-12T10:08:41.992Z,1.45
2023-03-12T10:14:23.365Z,1.50
2023-03-12T10:19:57.325Z,1.48
2023-03-12T10:25:18.233Z,1.50
2023-03-12T10:30:28.616Z,1.42
2023-03-12T10:35:35.658Z,1.15
2023-03-12T10:40:44.310Z,1.13
2023-03-12T10:46:04.806Z,1.02
2023-03-12T10:51:15.419Z,1.40
2023-03-12T11:01:32.815Z,0.95
2023-03-12T11:06:39.720Z,1.00
2023-03-12T11:11:50.352Z,1.13
2023-03-12T11:16:58.567Z,1.13
2023-03-12T11:22:11.883Z,1.15
2023-03-12T11:27:32.635Z,1.42
2023-03-12T11:32:43.452Z,1.00
2023-03-12T11:38:05.198Z,1.20
2023-03-12T11:43:50.516Z,1.27
2023-03-12T11:49:13.306Z,1.17
2023-03-12T11:55:00.730Z,2.00
2023-03-12T12:00:18.817Z,1.00
2023-03-12T12:05:40.105Z,1.10
2023-03-12T12:11:00.355Z,0.90
2023-03-12T12:16:42.296Z,1.25
2023-03-12T12:22:05.324Z,1.00
2023-03-12T12:27:22.466Z,1.20
2023-03-12T12:32:48.367Z,1.25
2023-03-12T12:38:01.713Z,1.13
2023-03-12T12:43:25.687Z,1.10
2023-03-12T12:48:38.528Z,1.20
2023-03-12T12:53:55.518Z,1.20
2023-03-12T12:59:26.786Z,1.40
2023-03-12T13:04:39.210Z,1.23
2023-03-12T13:09:48.340Z,1.20
2023-03-12T13:14:57.914Z,1.55
2023-03-12T13:20:21.556Z,1.15
2023-03-12T13:25:52.882Z,1.35
2023-03-12T13:31:01.970Z,1.08
2023-03-12T13:41:38.517Z,1.17
2023-03-12T13:46:49.341Z,1.60
2023-03-12T13:52:25.864Z,1.60
2023-03-12T13:57:41.224Z,1.60
2023-03-12T14:03:00.588Z,1.35
2023-03-12T14:08:30.664Z,1.15
2023-03-12T14:14:06.268Z,1.42
2023-03-12T14:19:16.473Z,1.60
2023-03-12T14:24:33.274Z,1.52
2023-03-12T14:29:45.487Z,1.10
2023-03-12T14:34:59.838Z,1.52
2023-03-12T14:40:22.551Z,1.85
2023-03-12T14:45:30.479Z,1.98
2023-03-12T14:56:06.233Z,1.45
2023-03-12T15:01:19.455Z,1.73
2023-03-12T15:06:33.427Z,1.40
2023-03-12T15:11:43.367Z,1.90
2023-03-12T15:16:55.052Z,1.60
2023-03-12T15:22:03.754Z,1.67
2023-03-12T15:27:35.337Z,1.67
2023-03-12T15:32:43.422Z,1.80
2023-03-12T15:37:55.872Z,1.20
2023-03-12T15:43:08.051Z,1.77
2023-03-12T15:48:28.285Z,1.40
2023-03-12T15:53:40.835Z,1.60
2023-03-12T15:59:00.425Z,2.13
2023-03-12T16:04:11.556Z,1.88
2023-03-12T16:09:27.175Z,2.10
2023-03-12T16:14:37.606Z,1.90
2023-03-12T16:19:47.118Z,1.92
2023-03-12T16:24:57.951Z,2.03
2023-03-12T16:30:15.333Z,2.30
2023-03-12T16:35:24.253Z,1.60
2023-03-12T16:45:52.541Z,2.25
2023-03-12T16:51:07.671Z,2.22
2023-03-12T16:56:20.613Z,1.80
2023-03-12T17:01:30.653Z,1.83
2023-03-12T17:06:41.130Z,2.92
2023-03-12T17:11:51.872Z,1.85
2023-03-12T17:17:02.978Z,2.55
2023-03-12T17:22:12.285Z,2.10
2023-03-12T17:27:22.224Z,1.80
2023-03-12T17:32:34.437Z,1.80
2023-03-12T17:37:44.222Z,2.05
2023-03-12T17:42:54.469Z,2.50
2023-03-12T17:48:04.942Z,6.68
2023-03-12T17:53:16.881Z,11.07
2023-03-12T17:58:27.253Z,22.92
2023-03-12T18:03:39.679Z,22.35
2023-03-12T18:08:48.738Z,20.58
2023-03-12T18:13:56.921Z,15.82
2023-03-12T18:19:06.727Z,14.60
2023-03-12T18:24:14.905Z,6.93
2023-03-12T18:29:24.465Z,5.20
2023-03-12T18:34:36.458Z,6.18
2023-03-12T18:39:47.161Z,6.97
2023-03-12T18:45:00.186Z,6.90
2023-03-12T18:50:15.678Z,8.50
2023-03-12T18:55:26.669Z,9.70
2023-03-12T19:00:36.683Z,8.43
2023-03-12T19:05:49.454Z,8.75
2023-03-12T19:11:00.573Z,8.40
2023-03-12T19:16:18.780Z,7.55
2023-03-12T19:21:39.584Z,5.22
2023-03-12T19:26:49.946Z,5.30
2023-03-12T19:32:00.985Z,4.90
2023-03-12T19:37:15.759Z,4.78
2023-03-12T19:42:26.930Z,5.43
2023-03-12T19:47:37.439Z,4.78
2023-03-12T19:52:50.141Z,4.50
2023-03-12T19:58:03.852Z,5.07
2023-03-12T20:03:15.200Z,5.20
2023-03-12T20:08:30.328Z,5.18
2023-03-12T20:13:41.732Z,6.78
2023-03-12T20:18:52.883Z,7.88
2023-03-12T20:24:07.155Z,10.35
2023-03-12T20:29:17.811Z,9.93
2023-03-12T20:34:28.491Z,11.43
2023-03-12T20:39:49.620Z,37.55
2023-03-12T20:45:00.404Z,42.58
2023-03-12T20:55:21.665Z,38.80
2023-03-12T21:00:31.285Z,51.17
2023-03-12T21:05:41.352Z,48.33
2023-03-12T21:10:53.095Z,45.05
2023-03-12T21:16:05.056Z,43.70
2023-03-12T21:21:15.024Z,41.63
2023-03-12T21:26:23.939Z,29.02
2023-03-12T21:31:32.797Z,25.98
2023-03-12T21:36:41.197Z,23.58
2023-03-12T21:41:50.433Z,23.58
2023-03-12T21:52:03.446Z,28.92
2023-03-12T21:57:11.641Z,25.88
2023-03-12T22:02:18.325Z,19.37
2023-03-12T22:07:24.956Z,23.40
2023-03-12T22:12:33.079Z,24.77
2023-03-12T22:17:39.668Z,20.60
2023-03-12T22:22:46.363Z,25.05
2023-03-12T22:27:54.689Z,26.83
2023-03-12T22:33:01.062Z,24.53
2023-03-12T22:38:07.563Z,25.60
2023-03-12T22:43:15.868Z,22.73
2023-03-12T22:48:22.516Z,21.67
2023-03-12T22:53:29.156Z,21.40
2023-03-12T22:58:38.047Z,22.95
2023-03-12T23:03:46.302Z,21.40
2023-03-12T23:08:52.963Z,19.17
2023-03-12T23:14:00.755Z,21.02
2023-03-12T23:19:07.271Z,18.98
2023-03-12T23:24:13.556Z,19.83
2023-03-12T23:29:21.546Z,17.13
2023-03-12T23:34:28.585Z,15.05
2023-03-12T23:39:44.980Z,16.58
2023-03-12T23:44:59.887Z,12.38
2023-03-12T23:50:07.777Z,8.57
2023-03-12T23:55:14.573Z,11.38
